sensor_id;sensor_type;location;lat;lon;timestamp;P1;durP1;ratioP1;P2;durP2;ratioP2
19095;SDS011;9680;52.520;13.332;2022-09-09T00:00:57;9.48;;;5.32;;
19095;SDS011;9680;52.520;13.332;2022-09-09T00:03:53;7.80;;;4.85;;
19095;SDS011;9680;52.520;13.332;2022-09-09T00:06:33;8.85;;;5.25;;
19095;SDS011;9680;52.520;13.332;2022-09-09T00:09:18;10.13;;;5.55;;
19095;SDS011;9680;52.520;13.332;2022-09-09T00:11:51;7.38;;;4.90;;
19095;SDS011;9680;52.520;13.332;2022-09-09T00:14:26;8.70;;;5.65;;
19095;SDS011;9680;52.520;13.332;2022-09-09T00:17:12;8.65;;;5.18;;
19095;SDS011;9680;52.520;13.332;2022-09-09T00:19:49;9.50;;;5.03;;
19095;SDS011;9680;52.520;13.332;2022-09-09T00:22:25;10.82;;;5.60;;
19095;SDS011;9680;52.520;13.332;2022-09-09T00:24:57;10.07;;;5.50;;
19095;SDS011;9680;52.520;13.332;2022-09-09T00:27:45;8.93;;;5.18;;
19095;SDS011;9680;52.520;13.332;2022-09-09T00:30:17;9.48;;;5.20;;
19095;SDS011;9680;52.520;13.332;2022-09-09T00:33:22;10.77;;;5.47;;
19095;SDS011;9680;52.520;13.332;2022-09-09T00:35:59;11.57;;;5.38;;
19095;SDS011;9680;52.520;13.332;2022-09-09T00:43:38;9.23;;;5.57;;
19095;SDS011;9680;52.520;13.332;2022-09-09T00:57:15;10.38;;;5.57;;
19095;SDS011;9680;52.520;13.332;2022-09-09T01:05:30;9.73;;;6.00;;
19095;SDS011;9680;52.520;13.332;2022-09-09T01:08:52;8.27;;;5.20;;
19095;SDS011;9680;52.520;13.332;2022-09-09T01:11:21;8.07;;;5.53;;
19095;SDS011;9680;52.520;13.332;2022-09-09T01:13:52;8.13;;;5.43;;
19095;SDS011;9680;52.520;13.332;2022-09-09T01:16:26;8.48;;;5.65;;
19095;SDS011;9680;52.520;13.332;2022-09-09T01:18:55;9.90;;;5.65;;
19095;SDS011;9680;52.520;13.332;2022-09-09T01:24:20;9.95;;;5.60;;
19095;SDS011;9680;52.520;13.332;2022-09-09T01:27:03;8.35;;;5.40;;
19095;SDS011;9680;52.520;13.332;2022-09-09T01:29:31;11.00;;;6.55;;
19095;SDS011;9680;52.520;13.332;2022-09-09T01:31:59;8.20;;;5.43;;
19095;SDS011;9680;52.520;13.332;2022-09-09T01:34:36;9.40;;;6.18;;
19095;SDS011;9680;52.520;13.332;2022-09-09T01:37:07;12.90;;;6.18;;
19095;SDS011;9680;52.520;13.332;2022-09-09T01:39:37;10.63;;;6.03;;
19095;SDS011;9680;52.520;13.332;2022-09-09T01:42:10;9.65;;;5.60;;
19095;SDS011;9680;52.520;13.332;2022-09-09T01:44:39;9.93;;;5.93;;
19095;SDS011;9680;52.520;13.332;2022-09-09T01:47:05;13.50;;;6.43;;
19095;SDS011;9680;52.520;13.332;2022-09-09T01:49:32;12.50;;;6.50;;
19095;SDS011;9680;52.520;13.332;2022-09-09T01:52:03;8.52;;;5.75;;
19095;SDS011;9680;52.520;13.332;2022-09-09T01:54:33;9.57;;;5.90;;
19095;SDS011;9680;52.520;13.332;2022-09-09T01:57:24;9.98;;;6.22;;
19095;SDS011;9680;52.520;13.332;2022-09-09T02:00:06;9.10;;;5.75;;
19095;SDS011;9680;52.520;13.332;2022-09-09T02:02:57;9.45;;;6.00;;
19095;SDS011;9680;52.520;13.332;2022-09-09T02:05:44;9.05;;;5.57;;
19095;SDS011;9680;52.520;13.332;2022-09-09T02:08:24;9.60;;;6.00;;
19095;SDS011;9680;52.520;13.332;2022-09-09T02:11:08;8.73;;;5.45;;
19095;SDS011;9680;52.520;13.332;2022-09-09T02:13:44;11.32;;;5.72;;
19095;SDS011;9680;52.520;13.332;2022-09-09T02:16:18;10.75;;;5.45;;
19095;SDS011;9680;52.520;13.332;2022-09-09T02:21:41;9.00;;;5.57;;
19095;SDS011;9680;52.520;13.332;2022-09-09T02:24:10;9.88;;;5.85;;
19095;SDS011;9680;52.520;13.332;2022-09-09T02:26:46;12.95;;;5.95;;
19095;SDS011;9680;52.520;13.332;2022-09-09T02:29:22;10.23;;;5.47;;
19095;SDS011;9680;52.520;13.332;2022-09-09T02:31:52;8.68;;;5.07;;
19095;SDS011;9680;52.520;13.332;2022-09-09T02:34:27;9.95;;;5.30;;
19095;SDS011;9680;52.520;13.332;2022-09-09T02:36:53;10.63;;;5.68;;
19095;SDS011;9680;52.520;13.332;2022-09-09T02:39:22;8.90;;;5.38;;
19095;SDS011;9680;52.520;13.332;2022-09-09T02:41:49;15.10;;;5.60;;
19095;SDS011;9680;52.520;13.332;2022-09-09T02:44:15;8.82;;;5.13;;
19095;SDS011;9680;52.520;13.332;2022-09-09T02:49:16;9.32;;;5.38;;
19095;SDS011;9680;52.520;13.332;2022-09-09T02:54:35;11.40;;;4.97;;
19095;SDS011;9680;52.520;13.332;2022-09-09T02:57:17;8.98;;;5.32;;
19095;SDS011;9680;52.520;13.332;2022-09-09T02:59:48;10.02;;;5.22;;
19095;SDS011;9680;52.520;13.332;2022-09-09T03:02:15;9.30;;;5.55;;
19095;SDS011;9680;52.520;13.332;2022-09-09T03:04:44;8.13;;;5.10;;
19095;SDS011;9680;52.520;13.332;2022-09-09T03:07:16;8.00;;;5.13;;
19095;SDS011;9680;52.520;13.332;2022-09-09T03:09:43;8.40;;;5.30;;
19095;SDS011;9680;52.520;13.332;2022-09-09T03:12:10;8.70;;;5.07;;
19095;SDS011;9680;52.520;13.332;2022-09-09T03:14:37;11.18;;;5.38;;
19095;SDS011;9680;52.520;13.332;2022-09-09T03:17:04;7.88;;;5.05;;
19095;SDS011;9680;52.520;13.332;2022-09-09T03:19:35;8.50;;;5.10;;
19095;SDS011;9680;52.520;13.332;2022-09-09T03:22:01;10.82;;;5.68;;
19095;SDS011;9680;52.520;13.332;2022-09-09T03:24:30;7.72;;;4.85;;
19095;SDS011;9680;52.520;13.332;2022-09-09T03:26:55;9.07;;;5.00;;
19095;SDS011;9680;52.520;13.332;2022-09-09T03:29:21;8.60;;;4.90;;
19095;SDS011;9680;52.520;13.332;2022-09-09T03:31:47;10.35;;;5.25;;
19095;SDS011;9680;52.520;13.332;2022-09-09T03:34:13;8.68;;;5.18;;
19095;SDS011;9680;52.520;13.332;2022-09-09T03:36:39;9.20;;;5.10;;
19095;SDS011;9680;52.520;13.332;2022-09-09T03:39:06;10.60;;;5.20;;
19095;SDS011;9680;52.520;13.332;2022-09-09T03:41:32;8.45;;;4.80;;
19095;SDS011;9680;52.520;13.332;2022-09-09T03:43:59;12.05;;;4.72;;
19095;SDS011;9680;52.520;13.332;2022-09-09T03:46:27;7.65;;;4.68;;
19095;SDS011;9680;52.520;13.332;2022-09-09T03:48:53;9.93;;;4.95;;
19095;SDS011;9680;52.520;13.332;2022-09-09T03:51:19;11.02;;;4.60;;
19095;SDS011;9680;52.520;13.332;2022-09-09T03:53:47;9.63;;;5.13;;
19095;SDS011;9680;52.520;13.332;2022-09-09T03:56:13;7.97;;;4.50;;
19095;SDS011;9680;52.520;13.332;2022-09-09T03:58:39;8.30;;;5.00;;
19095;SDS011;9680;52.520;13.332;2022-09-09T04:01:11;11.15;;;5.28;;
19095;SDS011;9680;52.520;13.332;2022-09-09T04:03:43;8.07;;;4.53;;
19095;SDS011;9680;52.520;13.332;2022-09-09T04:06:10;6.95;;;4.43;;
19095;SDS011;9680;52.520;13.332;2022-09-09T04:08:39;9.95;;;4.30;;
19095;SDS011;9680;52.520;13.332;2022-09-09T04:11:08;9.68;;;4.63;;
19095;SDS011;9680;52.520;13.332;2022-09-09T04:13:37;8.02;;;4.25;;
19095;SDS011;9680;52.520;13.332;2022-09-09T04:16:05;9.93;;;4.55;;
19095;SDS011;9680;52.520;13.332;2022-09-09T04:18:34;11.38;;;4.72;;
19095;SDS011;9680;52.520;13.332;2022-09-09T04:21:00;6.47;;;4.13;;
19095;SDS011;9680;52.520;13.332;2022-09-09T04:23:29;6.70;;;3.92;;
19095;SDS011;9680;52.520;13.332;2022-09-09T04:26:28;7.90;;;4.38;;
19095;SDS011;9680;52.520;13.332;2022-09-09T04:28:54;8.30;;;4.20;;
19095;SDS011;9680;52.520;13.332;2022-09-09T04:31:21;8.25;;;4.47;;
19095;SDS011;9680;52.520;13.332;2022-09-09T04:33:50;6.55;;;4.40;;
19095;SDS011;9680;52.520;13.332;2022-09-09T04:36:16;7.82;;;4.25;;
19095;SDS011;9680;52.520;13.332;2022-09-09T04:38:44;12.77;;;4.43;;
19095;SDS011;9680;52.520;13.332;2022-09-09T04:41:11;8.52;;;5.05;;
19095;SDS011;9680;52.520;13.332;2022-09-09T04:43:41;9.20;;;4.80;;
19095;SDS011;9680;52.520;13.332;2022-09-09T04:46:08;7.22;;;4.35;;
19095;SDS011;9680;52.520;13.332;2022-09-09T04:48:34;9.77;;;4.75;;
19095;SDS011;9680;52.520;13.332;2022-09-09T04:51:02;8.32;;;4.30;;
19095;SDS011;9680;52.520;13.332;2022-09-09T04:53:32;6.68;;;4.07;;
19095;SDS011;9680;52.520;13.332;2022-09-09T04:56:06;7.00;;;4.38;;
19095;SDS011;9680;52.520;13.332;2022-09-09T04:58:39;6.75;;;4.50;;
19095;SDS011;9680;52.520;13.332;2022-09-09T05:01:09;7.68;;;4.43;;
19095;SDS011;9680;52.520;13.332;2022-09-09T05:03:38;8.05;;;4.50;;
19095;SDS011;9680;52.520;13.332;2022-09-09T05:06:10;10.60;;;4.80;;
19095;SDS011;9680;52.520;13.332;2022-09-09T05:08:38;7.63;;;3.95;;
19095;SDS011;9680;52.520;13.332;2022-09-09T05:13:53;7.00;;;3.80;;
19095;SDS011;9680;52.520;13.332;2022-09-09T05:16:19;6.72;;;3.85;;
19095;SDS011;9680;52.520;13.332;2022-09-09T05:18:46;9.63;;;4.10;;
19095;SDS011;9680;52.520;13.332;2022-09-09T05:21:12;7.15;;;3.88;;
19095;SDS011;9680;52.520;13.332;2022-09-09T05:23:40;7.72;;;3.42;;
19095;SDS011;9680;52.520;13.332;2022-09-09T05:26:07;8.23;;;3.97;;
19095;SDS011;9680;52.520;13.332;2022-09-09T05:28:37;6.75;;;3.63;;
19095;SDS011;9680;52.520;13.332;2022-09-09T05:31:07;7.72;;;3.60;;
19095;SDS011;9680;52.520;13.332;2022-09-09T05:33:35;9.57;;;3.78;;
19095;SDS011;9680;52.520;13.332;2022-09-09T05:36:03;4.95;;;3.33;;
19095;SDS011;9680;52.520;13.332;2022-09-09T05:38:33;6.78;;;3.63;;
19095;SDS011;9680;52.520;13.332;2022-09-09T05:41:17;7.93;;;3.63;;
19095;SDS011;9680;52.520;13.332;2022-09-09T05:43:45;7.47;;;3.53;;
19095;SDS011;9680;52.520;13.332;2022-09-09T05:46:16;13.10;;;3.80;;
19095;SDS011;9680;52.520;13.332;2022-09-09T05:48:46;7.53;;;3.60;;
19095;SDS011;9680;52.520;13.332;2022-09-09T05:51:13;10.52;;;4.03;;
19095;SDS011;9680;52.520;13.332;2022-09-09T05:53:41;8.13;;;3.28;;
19095;SDS011;9680;52.520;13.332;2022-09-09T05:56:12;5.88;;;3.40;;
19095;SDS011;9680;52.520;13.332;2022-09-09T05:59:16;9.35;;;3.38;;
19095;SDS011;9680;52.520;13.332;2022-09-09T06:01:42;8.73;;;3.90;;
19095;SDS011;9680;52.520;13.332;2022-09-09T06:04:15;7.95;;;3.55;;
19095;SDS011;9680;52.520;13.332;2022-09-09T06:06:41;8.93;;;3.40;;
19095;SDS011;9680;52.520;13.332;2022-09-09T06:09:13;7.78;;;3.20;;
19095;SDS011;9680;52.520;13.332;2022-09-09T06:11:41;6.28;;;3.28;;
19095;SDS011;9680;52.520;13.332;2022-09-09T06:14:08;7.50;;;2.90;;
19095;SDS011;9680;52.520;13.332;2022-09-09T06:16:34;4.72;;;2.85;;
19095;SDS011;9680;52.520;13.332;2022-09-09T06:19:00;6.32;;;2.90;;
19095;SDS011;9680;52.520;13.332;2022-09-09T06:21:30;6.40;;;3.30;;
19095;SDS011;9680;52.520;13.332;2022-09-09T06:23:59;5.15;;;3.30;;
19095;SDS011;9680;52.520;13.332;2022-09-09T06:26:26;9.80;;;3.50;;
19095;SDS011;9680;52.520;13.332;2022-09-09T06:28:57;6.80;;;3.40;;
19095;SDS011;9680;52.520;13.332;2022-09-09T06:31:24;5.85;;;3.20;;
19095;SDS011;9680;52.520;13.332;2022-09-09T06:33:53;7.85;;;3.80;;
19095;SDS011;9680;52.520;13.332;2022-09-09T06:36:26;8.00;;;3.00;;
19095;SDS011;9680;52.520;13.332;2022-09-09T06:38:53;5.15;;;3.20;;
19095;SDS011;9680;52.520;13.332;2022-09-09T06:41:20;7.07;;;3.08;;
19095;SDS011;9680;52.520;13.332;2022-09-09T06:43:47;8.23;;;2.83;;
19095;SDS011;9680;52.520;13.332;2022-09-09T06:46:16;7.03;;;3.10;;
19095;SDS011;9680;52.520;13.332;2022-09-09T06:48:45;6.85;;;3.22;;
19095;SDS011;9680;52.520;13.332;2022-09-09T06:51:17;4.72;;;2.80;;
19095;SDS011;9680;52.520;13.332;2022-09-09T06:53:47;7.93;;;3.38;;
19095;SDS011;9680;52.520;13.332;2022-09-09T06:58:52;5.05;;;2.67;;
19095;SDS011;9680;52.520;13.332;2022-09-09T07:01:24;4.00;;;2.70;;
19095;SDS011;9680;52.520;13.332;2022-09-09T07:03:54;5.97;;;2.75;;
19095;SDS011;9680;52.520;13.332;2022-09-09T07:06:22;5.40;;;3.00;;
19095;SDS011;9680;52.520;13.332;2022-09-09T07:09:01;5.60;;;2.85;;
19095;SDS011;9680;52.520;13.332;2022-09-09T07:11:34;8.10;;;2.55;;
19095;SDS011;9680;52.520;13.332;2022-09-09T07:14:10;4.60;;;2.60;;
19095;SDS011;9680;52.520;13.332;2022-09-09T07:16:39;5.35;;;2.50;;
19095;SDS011;9680;52.520;13.332;2022-09-09T07:19:05;7.07;;;3.13;;
19095;SDS011;9680;52.520;13.332;2022-09-09T07:21:31;5.50;;;2.92;;
19095;SDS011;9680;52.520;13.332;2022-09-09T07:23:59;6.72;;;2.33;;
19095;SDS011;9680;52.520;13.332;2022-09-09T07:26:26;4.30;;;2.30;;
19095;SDS011;9680;52.520;13.332;2022-09-09T07:28:55;5.43;;;2.20;;
19095;SDS011;9680;52.520;13.332;2022-09-09T07:31:23;5.03;;;2.20;;
19095;SDS011;9680;52.520;13.332;2022-09-09T07:34:01;4.22;;;2.28;;
19095;SDS011;9680;52.520;13.332;2022-09-09T07:36:30;3.88;;;2.25;;
19095;SDS011;9680;52.520;13.332;2022-09-09T07:39:01;4.65;;;2.03;;
19095;SDS011;9680;52.520;13.332;2022-09-09T07:41:39;6.95;;;2.08;;
19095;SDS011;9680;52.520;13.332;2022-09-09T07:44:08;4.57;;;2.00;;
19095;SDS011;9680;52.520;13.332;2022-09-09T07:46:37;4.32;;;1.70;;
19095;SDS011;9680;52.520;13.332;2022-09-09T07:49:09;3.22;;;1.65;;
19095;SDS011;9680;52.520;13.332;2022-09-09T07:51:37;4.30;;;1.52;;
19095;SDS011;9680;52.520;13.332;2022-09-09T07:54:05;4.13;;;1.48;;
19095;SDS011;9680;52.520;13.332;2022-09-09T07:56:35;4.80;;;1.63;;
19095;SDS011;9680;52.520;13.332;2022-09-09T07:59:02;3.17;;;1.80;;
19095;SDS011;9680;52.520;13.332;2022-09-09T08:01:31;3.78;;;1.60;;
19095;SDS011;9680;52.520;13.332;2022-09-09T08:04:05;3.38;;;1.50;;
19095;SDS011;9680;52.520;13.332;2022-09-09T08:06:38;5.00;;;1.50;;
19095;SDS011;9680;52.520;13.332;2022-09-09T08:09:07;3.72;;;1.73;;
19095;SDS011;9680;52.520;13.332;2022-09-09T08:11:35;6.97;;;2.08;;
19095;SDS011;9680;52.520;13.332;2022-09-09T08:14:02;5.95;;;2.00;;
19095;SDS011;9680;52.520;13.332;2022-09-09T08:16:30;5.00;;;1.70;;
19095;SDS011;9680;52.520;13.332;2022-09-09T08:18:58;4.75;;;1.52;;
19095;SDS011;9680;52.520;13.332;2022-09-09T08:21:28;4.25;;;1.50;;
19095;SDS011;9680;52.520;13.332;2022-09-09T08:23:56;4.93;;;1.98;;
19095;SDS011;9680;52.520;13.332;2022-09-09T08:26:25;4.00;;;1.40;;
19095;SDS011;9680;52.520;13.332;2022-09-09T08:28:54;5.57;;;1.80;;
19095;SDS011;9680;52.520;13.332;2022-09-09T08:31:29;4.22;;;1.45;;
19095;SDS011;9680;52.520;13.332;2022-09-09T08:33:57;5.78;;;1.58;;
19095;SDS011;9680;52.520;13.332;2022-09-09T08:36:26;3.80;;;1.70;;
19095;SDS011;9680;52.520;13.332;2022-09-09T08:38:55;3.42;;;1.42;;
19095;SDS011;9680;52.520;13.332;2022-09-09T08:55:44;5.05;;;1.58;;
19095;SDS011;9680;52.520;13.332;2022-09-09T09:09:41;4.57;;;1.80;;
19095;SDS011;9680;52.520;13.332;2022-09-09T09:12:23;3.00;;;1.30;;
19095;SDS011;9680;52.520;13.332;2022-09-09T09:14:54;4.30;;;1.50;;
19095;SDS011;9680;52.520;13.332;2022-09-09T09:17:21;5.78;;;1.55;;
19095;SDS011;9680;52.520;13.332;2022-09-09T09:19:50;6.38;;;1.70;;
19095;SDS011;9680;52.520;13.332;2022-09-09T09:22:18;3.13;;;1.45;;
19095;SDS011;9680;52.520;13.332;2022-09-09T09:27:46;6.13;;;1.73;;
19095;SDS011;9680;52.520;13.332;2022-09-09T09:30:22;3.20;;;1.60;;
19095;SDS011;9680;52.520;13.332;2022-09-09T09:35:41;4.55;;;1.52;;
19095;SDS011;9680;52.520;13.332;2022-09-09T09:38:21;4.75;;;1.70;;
19095;SDS011;9680;52.520;13.332;2022-09-09T09:40:56;4.10;;;1.95;;
19095;SDS011;9680;52.520;13.332;2022-09-09T09:43:26;3.97;;;1.50;;
19095;SDS011;9680;52.520;13.332;2022-09-09T09:45:59;4.57;;;1.58;;
19095;SDS011;9680;52.520;13.332;2022-09-09T09:48:26;4.13;;;1.38;;
19095;SDS011;9680;52.520;13.332;2022-09-09T09:53:28;2.47;;;1.10;;
19095;SDS011;9680;52.520;13.332;2022-09-09T09:56:00;4.10;;;1.45;;
19095;SDS011;9680;52.520;13.332;2022-09-09T09:58:32;2.80;;;1.75;;
19095;SDS011;9680;52.520;13.332;2022-09-09T10:03:53;4.15;;;1.35;;
19095;SDS011;9680;52.520;13.332;2022-09-09T10:06:32;3.08;;;1.13;;
19095;SDS011;9680;52.520;13.332;2022-09-09T10:08:59;4.30;;;1.58;;
19095;SDS011;9680;52.520;13.332;2022-09-09T10:11:40;4.65;;;1.27;;
19095;SDS011;9680;52.520;13.332;2022-09-09T10:19:34;2.78;;;1.38;;
19095;SDS011;9680;52.520;13.332;2022-09-09T10:30:18;4.60;;;1.40;;
19095;SDS011;9680;52.520;13.332;2022-09-09T10:35:52;4.03;;;1.30;;
19095;SDS011;9680;52.520;13.332;2022-09-09T10:38:45;2.53;;;1.20;;
19095;SDS011;9680;52.520;13.332;2022-09-09T10:47:21;2.17;;;1.10;;
19095;SDS011;9680;52.520;13.332;2022-09-09T10:55:02;3.22;;;1.10;;
19095;SDS011;9680;52.520;13.332;2022-09-09T10:57:33;2.80;;;1.08;;
19095;SDS011;9680;52.520;13.332;2022-09-09T11:00:05;3.67;;;1.35;;
19095;SDS011;9680;52.520;13.332;2022-09-09T11:02:39;2.40;;;1.00;;
19095;SDS011;9680;52.520;13.332;2022-09-09T11:05:20;5.40;;;1.25;;
19095;SDS011;9680;52.520;13.332;2022-09-09T11:07:54;3.75;;;1.15;;
19095;SDS011;9680;52.520;13.332;2022-09-09T11:13:09;5.82;;;1.50;;
19095;SDS011;9680;52.520;13.332;2022-09-09T11:15:50;5.78;;;1.45;;
19095;SDS011;9680;52.520;13.332;2022-09-09T11:18:30;3.10;;;1.13;;
19095;SDS011;9680;52.520;13.332;2022-09-09T11:21:01;3.38;;;1.40;;
19095;SDS011;9680;52.520;13.332;2022-09-09T11:23:42;3.20;;;1.30;;
19095;SDS011;9680;52.520;13.332;2022-09-09T11:26:17;4.82;;;1.27;;
19095;SDS011;9680;52.520;13.332;2022-09-09T11:29:11;6.57;;;1.50;;
19095;SDS011;9680;52.520;13.332;2022-09-09T11:34:51;4.65;;;0.80;;
19095;SDS011;9680;52.520;13.332;2022-09-09T11:40:25;2.65;;;0.80;;
19095;SDS011;9680;52.520;13.332;2022-09-09T11:43:03;1.75;;;0.88;;
19095;SDS011;9680;52.520;13.332;2022-09-09T11:45:37;2.15;;;0.80;;
19095;SDS011;9680;52.520;13.332;2022-09-09T11:48:04;3.22;;;0.80;;
19095;SDS011;9680;52.520;13.332;2022-09-09T11:50:36;3.13;;;0.95;;
19095;SDS011;9680;52.520;13.332;2022-09-09T11:53:21;2.30;;;0.98;;
19095;SDS011;9680;52.520;13.332;2022-09-09T11:55:48;1.98;;;1.13;;
19095;SDS011;9680;52.520;13.332;2022-09-09T11:58:26;2.47;;;1.10;;
19095;SDS011;9680;52.520;13.332;2022-09-09T12:00:57;2.58;;;1.02;;
19095;SDS011;9680;52.520;13.332;2022-09-09T12:03:38;1.98;;;0.95;;
19095;SDS011;9680;52.520;13.332;2022-09-09T12:09:12;2.13;;;0.77;;
19095;SDS011;9680;52.520;13.332;2022-09-09T12:11:40;7.07;;;1.10;;
19095;SDS011;9680;52.520;13.332;2022-09-09T12:14:18;2.10;;;0.98;;
19095;SDS011;9680;52.520;13.332;2022-09-09T12:17:08;3.83;;;1.10;;
19095;SDS011;9680;52.520;13.332;2022-09-09T12:19:34;1.73;;;0.93;;
19095;SDS011;9680;52.520;13.332;2022-09-09T12:22:06;2.17;;;0.73;;
19095;SDS011;9680;52.520;13.332;2022-09-09T12:24:54;1.20;;;0.80;;
19095;SDS011;9680;52.520;13.332;2022-09-09T12:27:36;2.33;;;0.90;;
19095;SDS011;9680;52.520;13.332;2022-09-09T12:30:11;1.60;;;0.85;;
19095;SDS011;9680;52.520;13.332;2022-09-09T12:32:39;1.25;;;0.65;;
19095;SDS011;9680;52.520;13.332;2022-09-09T12:35:13;4.13;;;1.05;;
19095;SDS011;9680;52.520;13.332;2022-09-09T12:37:50;2.30;;;0.93;;
19095;SDS011;9680;52.520;13.332;2022-09-09T12:40:29;3.58;;;1.10;;
19095;SDS011;9680;52.520;13.332;2022-09-09T12:42:57;3.03;;;0.88;;
19095;SDS011;9680;52.520;13.332;2022-09-09T12:45:27;1.52;;;0.70;;
19095;SDS011;9680;52.520;13.332;2022-09-09T12:48:00;1.77;;;0.80;;
19095;SDS011;9680;52.520;13.332;2022-09-09T12:50:31;2.67;;;1.05;;
19095;SDS011;9680;52.520;13.332;2022-09-09T12:53:07;1.60;;;0.90;;
19095;SDS011;9680;52.520;13.332;2022-09-09T12:55:36;4.70;;;1.00;;
19095;SDS011;9680;52.520;13.332;2022-09-09T12:58:07;2.33;;;0.90;;
19095;SDS011;9680;52.520;13.332;2022-09-09T13:00:56;3.08;;;1.05;;
19095;SDS011;9680;52.520;13.332;2022-09-09T13:03:26;4.47;;;1.00;;
19095;SDS011;9680;52.520;13.332;2022-09-09T13:05:52;2.78;;;0.93;;
19095;SDS011;9680;52.520;13.332;2022-09-09T13:08:25;2.40;;;0.90;;
19095;SDS011;9680;52.520;13.332;2022-09-09T13:11:01;2.25;;;0.80;;
19095;SDS011;9680;52.520;13.332;2022-09-09T13:13:38;2.60;;;0.80;;
19095;SDS011;9680;52.520;13.332;2022-09-09T13:16:06;2.67;;;0.90;;
19095;SDS011;9680;52.520;13.332;2022-09-09T13:18:42;2.78;;;0.77;;
19095;SDS011;9680;52.520;13.332;2022-09-09T13:21:08;3.83;;;0.90;;
19095;SDS011;9680;52.520;13.332;2022-09-09T13:23:35;4.20;;;0.80;;
19095;SDS011;9680;52.520;13.332;2022-09-09T13:28:31;2.95;;;0.90;;
19095;SDS011;9680;52.520;13.332;2022-09-09T13:31:04;3.25;;;0.85;;
19095;SDS011;9680;52.520;13.332;2022-09-09T13:33:33;4.45;;;1.02;;
19095;SDS011;9680;52.520;13.332;2022-09-09T13:36:03;1.77;;;0.95;;
19095;SDS011;9680;52.520;13.332;2022-09-09T13:38:32;2.28;;;0.80;;
19095;SDS011;9680;52.520;13.332;2022-09-09T13:41:07;4.35;;;0.77;;
19095;SDS011;9680;52.520;13.332;2022-09-09T13:43:41;4.53;;;1.15;;
19095;SDS011;9680;52.520;13.332;2022-09-09T13:46:28;2.78;;;1.02;;
19095;SDS011;9680;52.520;13.332;2022-09-09T13:48:57;6.38;;;0.98;;
19095;SDS011;9680;52.520;13.332;2022-09-09T13:51:29;4.20;;;1.10;;
19095;SDS011;9680;52.520;13.332;2022-09-09T13:53:58;4.32;;;1.27;;
19095;SDS011;9680;52.520;13.332;2022-09-09T13:56:25;4.70;;;0.90;;
19095;SDS011;9680;52.520;13.332;2022-09-09T13:58:51;4.15;;;1.00;;
19095;SDS011;9680;52.520;13.332;2022-09-09T14:01:17;2.22;;;1.00;;
19095;SDS011;9680;52.520;13.332;2022-09-09T14:03:42;3.80;;;0.98;;
19095;SDS011;9680;52.520;13.332;2022-09-09T14:06:09;7.50;;;1.30;;
19095;SDS011;9680;52.520;13.332;2022-09-09T14:08:36;1.40;;;0.80;;
19095;SDS011;9680;52.520;13.332;2022-09-09T14:11:05;2.53;;;0.80;;
19095;SDS011;9680;52.520;13.332;2022-09-09T14:13:31;2.42;;;0.90;;
19095;SDS011;9680;52.520;13.332;2022-09-09T14:15:57;4.25;;;0.90;;
19095;SDS011;9680;52.520;13.332;2022-09-09T14:18:22;1.63;;;0.80;;
19095;SDS011;9680;52.520;13.332;2022-09-09T14:20:50;3.25;;;0.90;;
19095;SDS011;9680;52.520;13.332;2022-09-09T14:23:16;4.50;;;1.00;;
19095;SDS011;9680;52.520;13.332;2022-09-09T14:25:42;2.03;;;0.82;;
19095;SDS011;9680;52.520;13.332;2022-09-09T14:28:12;3.08;;;0.88;;
19095;SDS011;9680;52.520;13.332;2022-09-09T14:30:41;3.25;;;1.00;;
19095;SDS011;9680;52.520;13.332;2022-09-09T14:33:09;4.72;;;0.90;;
19095;SDS011;9680;52.520;13.332;2022-09-09T14:35:39;3.47;;;0.80;;
19095;SDS011;9680;52.520;13.332;2022-09-09T14:38:06;3.53;;;1.42;;
19095;SDS011;9680;52.520;13.332;2022-09-09T14:40:33;3.17;;;1.20;;
19095;SDS011;9680;52.520;13.332;2022-09-09T14:43:00;4.28;;;1.00;;
19095;SDS011;9680;52.520;13.332;2022-09-09T14:45:26;3.15;;;1.23;;
19095;SDS011;9680;52.520;13.332;2022-09-09T14:47:51;2.38;;;0.90;;
19095;SDS011;9680;52.520;13.332;2022-09-09T14:50:18;2.15;;;1.17;;
19095;SDS011;9680;52.520;13.332;2022-09-09T14:52:44;3.50;;;0.85;;
19095;SDS011;9680;52.520;13.332;2022-09-09T14:55:10;3.63;;;1.00;;
19095;SDS011;9680;52.520;13.332;2022-09-09T14:57:36;2.28;;;0.82;;
19095;SDS011;9680;52.520;13.332;2022-09-09T15:00:03;1.75;;;0.82;;
19095;SDS011;9680;52.520;13.332;2022-09-09T15:02:30;2.17;;;0.90;;
19095;SDS011;9680;52.520;13.332;2022-09-09T15:04:56;1.45;;;0.75;;
19095;SDS011;9680;52.520;13.332;2022-09-09T15:07:25;2.17;;;0.80;;
19095;SDS011;9680;52.520;13.332;2022-09-09T15:09:50;4.07;;;1.10;;
19095;SDS011;9680;52.520;13.332;2022-09-09T15:12:18;1.95;;;1.00;;
19095;SDS011;9680;52.520;13.332;2022-09-09T15:14:44;2.95;;;1.30;;
19095;SDS011;9680;52.520;13.332;2022-09-09T15:17:10;5.18;;;1.23;;
19095;SDS011;9680;52.520;13.332;2022-09-09T15:19:36;2.90;;;1.10;;
19095;SDS011;9680;52.520;13.332;2022-09-09T15:22:03;1.90;;;1.05;;
19095;SDS011;9680;52.520;13.332;2022-09-09T15:24:31;3.50;;;0.93;;
19095;SDS011;9680;52.520;13.332;2022-09-09T15:26:57;2.95;;;1.00;;
19095;SDS011;9680;52.520;13.332;2022-09-09T15:29:23;2.13;;;1.08;;
19095;SDS011;9680;52.520;13.332;2022-09-09T15:31:49;3.47;;;1.45;;
19095;SDS011;9680;52.520;13.332;2022-09-09T15:34:14;4.72;;;0.93;;
19095;SDS011;9680;52.520;13.332;2022-09-09T15:36:41;3.83;;;0.88;;
19095;SDS011;9680;52.520;13.332;2022-09-09T15:39:12;2.38;;;1.15;;
19095;SDS011;9680;52.520;13.332;2022-09-09T15:41:41;1.95;;;1.08;;
19095;SDS011;9680;52.520;13.332;2022-09-09T15:44:08;3.53;;;1.00;;
19095;SDS011;9680;52.520;13.332;2022-09-09T15:46:40;2.85;;;1.13;;
19095;SDS011;9680;52.520;13.332;2022-09-09T15:49:22;2.05;;;1.00;;
19095;SDS011;9680;52.520;13.332;2022-09-09T15:51:52;6.60;;;1.30;;
19095;SDS011;9680;52.520;13.332;2022-09-09T15:54:23;4.18;;;1.20;;
19095;SDS011;9680;52.520;13.332;2022-09-09T15:56:51;1.85;;;1.00;;
19095;SDS011;9680;52.520;13.332;2022-09-09T15:59:20;3.83;;;1.00;;
19095;SDS011;9680;52.520;13.332;2022-09-09T16:01:47;4.55;;;1.20;;
19095;SDS011;9680;52.520;13.332;2022-09-09T16:04:16;3.50;;;1.17;;
19095;SDS011;9680;52.520;13.332;2022-09-09T16:06:52;5.35;;;1.30;;
19095;SDS011;9680;52.520;13.332;2022-09-09T16:09:28;3.47;;;1.30;;
19095;SDS011;9680;52.520;13.332;2022-09-09T16:11:58;3.10;;;1.30;;
19095;SDS011;9680;52.520;13.332;2022-09-09T16:14:31;3.40;;;1.20;;
19095;SDS011;9680;52.520;13.332;2022-09-09T16:17:01;5.95;;;1.20;;
19095;SDS011;9680;52.520;13.332;2022-09-09T16:19:27;5.13;;;1.45;;
19095;SDS011;9680;52.520;13.332;2022-09-09T16:21:53;2.20;;;1.00;;
19095;SDS011;9680;52.520;13.332;2022-09-09T16:24:19;4.10;;;1.33;;
19095;SDS011;9680;52.520;13.332;2022-09-09T16:26:48;2.95;;;1.10;;
19095;SDS011;9680;52.520;13.332;2022-09-09T16:29:16;3.58;;;1.42;;
19095;SDS011;9680;52.520;13.332;2022-09-09T16:31:43;3.28;;;1.40;;
19095;SDS011;9680;52.520;13.332;2022-09-09T16:34:09;4.18;;;1.40;;
19095;SDS011;9680;52.520;13.332;2022-09-09T16:36:35;4.43;;;1.30;;
19095;SDS011;9680;52.520;13.332;2022-09-09T16:39:04;5.32;;;1.50;;
19095;SDS011;9680;52.520;13.332;2022-09-09T16:41:31;2.78;;;1.60;;
19095;SDS011;9680;52.520;13.332;2022-09-09T16:44:02;6.03;;;1.85;;
19095;SDS011;9680;52.520;13.332;2022-09-09T16:46:30;6.82;;;1.80;;
19095;SDS011;9680;52.520;13.332;2022-09-09T16:48:58;5.32;;;1.63;;
19095;SDS011;9680;52.520;13.332;2022-09-09T16:51:26;4.82;;;1.80;;
19095;SDS011;9680;52.520;13.332;2022-09-09T16:53:57;4.20;;;1.33;;
19095;SDS011;9680;52.520;13.332;2022-09-09T16:56:24;4.88;;;1.40;;
19095;SDS011;9680;52.520;13.332;2022-09-09T16:58:55;2.70;;;1.38;;
19095;SDS011;9680;52.520;13.332;2022-09-09T17:01:23;4.10;;;1.40;;
19095;SDS011;9680;52.520;13.332;2022-09-09T17:03:55;5.15;;;1.50;;
19095;SDS011;9680;52.520;13.332;2022-09-09T17:06:22;4.00;;;1.60;;